sensor_id;sensor_type;location;lat;lon;timestamp;P1;durP1;ratioP1;P2;durP2;ratioP2
77324;SDS011;66387;53.440;10.390;2023-12-04T00:01:33;27.53;;;14.37;;
77324;SDS011;66387;53.440;10.390;2023-12-04T00:03:58;28.90;;;13.03;;
77324;SDS011;66387;53.440;10.390;2023-12-04T00:06:24;24.80;;;13.60;;
77324;SDS011;66387;53.440;10.390;2023-12-04T00:08:49;24.70;;;13.30;;
77324;SDS011;66387;53.440;10.390;2023-12-04T00:11:14;24.63;;;12.95;;
77324;SDS011;66387;53.440;10.390;2023-12-04T00:13:40;26.52;;;13.57;;
77324;SDS011;66387;53.440;10.390;2023-12-04T00:16:05;29.77;;;12.87;;
77324;SDS011;66387;53.440;10.390;2023-12-04T00:18:31;22.85;;;11.98;;
77324;SDS011;66387;53.440;10.390;2023-12-04T00:20:56;26.70;;;13.07;;
77324;SDS011;66387;53.440;10.390;2023-12-04T00:23:21;26.27;;;14.37;;
77324;SDS011;66387;53.440;10.390;2023-12-04T00:25:46;23.40;;;13.00;;
77324;SDS011;66387;53.440;10.390;2023-12-04T00:28:12;23.50;;;13.25;;
77324;SDS011;66387;53.440;10.390;2023-12-04T00:30:37;27.77;;;13.00;;
77324;SDS011;66387;53.440;10.390;2023-12-04T00:33:02;28.80;;;12.73;;
77324;SDS011;66387;53.440;10.390;2023-12-04T00:35:27;24.13;;;12.77;;
77324;SDS011;66387;53.440;10.390;2023-12-04T00:37:53;21.60;;;12.00;;
77324;SDS011;66387;53.440;10.390;2023-12-04T00:40:18;31.60;;;13.40;;
77324;SDS011;66387;53.440;10.390;2023-12-04T00:42:43;24.13;;;12.17;;
77324;SDS011;66387;53.440;10.390;2023-12-04T00:45:09;24.35;;;11.35;;
77324;SDS011;66387;53.440;10.390;2023-12-04T00:47:34;24.65;;;12.07;;
77324;SDS011;66387;53.440;10.390;2023-12-04T00:49:59;20.93;;;11.13;;
77324;SDS011;66387;53.440;10.390;2023-12-04T00:52:24;29.07;;;14.47;;
77324;SDS011;66387;53.440;10.390;2023-12-04T00:54:50;19.17;;;11.87;;
77324;SDS011;66387;53.440;10.390;2023-12-04T00:57:15;27.00;;;12.67;;
77324;SDS011;66387;53.440;10.390;2023-12-04T00:59:40;27.25;;;12.82;;
77324;SDS011;66387;53.440;10.390;2023-12-04T01:02:06;22.87;;;12.60;;
77324;SDS011;66387;53.440;10.390;2023-12-04T01:04:32;23.77;;;11.88;;
77324;SDS011;66387;53.440;10.390;2023-12-04T01:06:57;23.23;;;11.85;;
77324;SDS011;66387;53.440;10.390;2023-12-04T01:09:22;22.77;;;12.70;;
77324;SDS011;66387;53.440;10.390;2023-12-04T01:11:52;20.08;;;11.57;;
77324;SDS011;66387;53.440;10.390;2023-12-04T01:14:18;20.77;;;11.88;;
77324;SDS011;66387;53.440;10.390;2023-12-04T01:16:44;21.85;;;11.13;;
77324;SDS011;66387;53.440;10.390;2023-12-04T01:19:10;22.42;;;12.68;;
77324;SDS011;66387;53.440;10.390;2023-12-04T01:21:35;17.55;;;10.75;;
77324;SDS011;66387;53.440;10.390;2023-12-04T01:24:00;19.63;;;10.80;;
77324;SDS011;66387;53.440;10.390;2023-12-04T01:26:26;21.23;;;11.10;;
77324;SDS011;66387;53.440;10.390;2023-12-04T01:28:51;20.57;;;10.87;;
77324;SDS011;66387;53.440;10.390;2023-12-04T01:31:16;18.30;;;11.20;;
77324;SDS011;66387;53.440;10.390;2023-12-04T01:33:41;15.50;;;9.60;;
77324;SDS011;66387;53.440;10.390;2023-12-04T01:36:07;17.37;;;10.70;;
77324;SDS011;66387;53.440;10.390;2023-12-04T01:38:32;21.00;;;10.70;;
77324;SDS011;66387;53.440;10.390;2023-12-04T01:40:58;21.70;;;9.87;;
77324;SDS011;66387;53.440;10.390;2023-12-04T01:43:23;18.23;;;10.10;;
77324;SDS011;66387;53.440;10.390;2023-12-04T01:45:48;18.80;;;12.33;;
77324;SDS011;66387;53.440;10.390;2023-12-04T01:48:14;19.60;;;11.27;;
77324;SDS011;66387;53.440;10.390;2023-12-04T01:50:40;18.38;;;9.52;;
77324;SDS011;66387;53.440;10.390;2023-12-04T01:53:05;19.47;;;10.67;;
77324;SDS011;66387;53.440;10.390;2023-12-04T01:55:31;20.02;;;12.43;;
77324;SDS011;66387;53.440;10.390;2023-12-04T01:57:59;17.80;;;10.32;;
77324;SDS011;66387;53.440;10.390;2023-12-04T02:00:25;22.40;;;9.90;;
77324;SDS011;66387;53.440;10.390;2023-12-04T02:02:51;20.08;;;11.18;;
77324;SDS011;66387;53.440;10.390;2023-12-04T02:05:16;20.13;;;10.32;;
77324;SDS011;66387;53.440;10.390;2023-12-04T02:07:42;19.73;;;10.95;;
77324;SDS011;66387;53.440;10.390;2023-12-04T02:10:08;22.33;;;11.18;;
77324;SDS011;66387;53.440;10.390;2023-12-04T02:12:33;19.17;;;10.50;;
77324;SDS011;66387;53.440;10.390;2023-12-04T02:14:59;20.58;;;10.40;;
77324;SDS011;66387;53.440;10.390;2023-12-04T02:17:24;16.40;;;9.25;;
77324;SDS011;66387;53.440;10.390;2023-12-04T02:19:51;15.02;;;8.77;;
77324;SDS011;66387;53.440;10.390;2023-12-04T02:22:17;19.50;;;8.65;;
77324;SDS011;66387;53.440;10.390;2023-12-04T02:24:43;19.45;;;11.20;;
77324;SDS011;66387;53.440;10.390;2023-12-04T02:27:10;20.70;;;10.32;;
77324;SDS011;66387;53.440;10.390;2023-12-04T02:29:41;20.23;;;9.95;;
77324;SDS011;66387;53.440;10.390;2023-12-04T02:32:12;16.40;;;8.60;;
77324;SDS011;66387;53.440;10.390;2023-12-04T02:34:41;17.45;;;8.00;;
77324;SDS011;66387;53.440;10.390;2023-12-04T02:37:08;17.45;;;8.32;;
77324;SDS011;66387;53.440;10.390;2023-12-04T02:39:36;18.23;;;10.60;;
77324;SDS011;66387;53.440;10.390;2023-12-04T02:42:01;17.77;;;8.43;;
77324;SDS011;66387;53.440;10.390;2023-12-04T02:44:27;19.73;;;9.18;;
77324;SDS011;66387;53.440;10.390;2023-12-04T02:46:53;18.27;;;9.87;;
77324;SDS011;66387;53.440;10.390;2023-12-04T02:49:18;15.80;;;8.47;;
77324;SDS011;66387;53.440;10.390;2023-12-04T02:51:43;18.80;;;9.20;;
77324;SDS011;66387;53.440;10.390;2023-12-04T02:54:08;15.93;;;9.20;;
77324;SDS011;66387;53.440;10.390;2023-12-04T02:56:34;18.27;;;8.77;;
77324;SDS011;66387;53.440;10.390;2023-12-04T02:58:59;15.80;;;9.17;;
77324;SDS011;66387;53.440;10.390;2023-12-04T03:01:24;14.93;;;9.03;;
77324;SDS011;66387;53.440;10.390;2023-12-04T03:03:49;17.60;;;8.97;;
77324;SDS011;66387;53.440;10.390;2023-12-04T03:06:15;20.92;;;10.43;;
77324;SDS011;66387;53.440;10.390;2023-12-04T03:08:43;16.85;;;8.95;;
77324;SDS011;66387;53.440;10.390;2023-12-04T03:11:08;16.00;;;8.83;;
77324;SDS011;66387;53.440;10.390;2023-12-04T03:13:34;16.43;;;8.37;;
77324;SDS011;66387;53.440;10.390;2023-12-04T03:15:59;15.70;;;8.20;;
77324;SDS011;66387;53.440;10.390;2023-12-04T03:18:25;19.55;;;9.75;;
77324;SDS011;66387;53.440;10.390;2023-12-04T03:20:50;17.73;;;8.38;;
77324;SDS011;66387;53.440;10.390;2023-12-04T03:23:16;16.75;;;8.93;;
77324;SDS011;66387;53.440;10.390;2023-12-04T03:25:41;18.17;;;9.20;;
77324;SDS011;66387;53.440;10.390;2023-12-04T03:28:06;16.17;;;8.97;;
77324;SDS011;66387;53.440;10.390;2023-12-04T03:30:32;15.93;;;9.73;;
77324;SDS011;66387;53.440;10.390;2023-12-04T03:32:57;18.90;;;10.07;;
77324;SDS011;66387;53.440;10.390;2023-12-04T03:35:22;16.43;;;10.73;;
77324;SDS011;66387;53.440;10.390;2023-12-04T03:37:48;15.93;;;9.13;;
77324;SDS011;66387;53.440;10.390;2023-12-04T03:40:14;15.63;;;9.23;;
77324;SDS011;66387;53.440;10.390;2023-12-04T03:42:41;18.15;;;9.43;;
77324;SDS011;66387;53.440;10.390;2023-12-04T03:45:06;19.97;;;10.10;;
77324;SDS011;66387;53.440;10.390;2023-12-04T03:47:32;19.20;;;9.70;;
77324;SDS011;66387;53.440;10.390;2023-12-04T03:49:57;17.57;;;9.87;;
77324;SDS011;66387;53.440;10.390;2023-12-04T03:52:22;16.67;;;9.83;;
77324;SDS011;66387;53.440;10.390;2023-12-04T03:54:48;21.23;;;10.47;;
77324;SDS011;66387;53.440;10.390;2023-12-04T03:57:13;17.13;;;10.23;;
77324;SDS011;66387;53.440;10.390;2023-12-04T03:59:38;15.17;;;10.40;;
77324;SDS011;66387;53.440;10.390;2023-12-04T04:02:04;24.55;;;12.13;;
77324;SDS011;66387;53.440;10.390;2023-12-04T04:04:29;20.33;;;9.60;;
77324;SDS011;66387;53.440;10.390;2023-12-04T04:06:54;18.83;;;8.43;;
77324;SDS011;66387;53.440;10.390;2023-12-04T04:09:20;24.40;;;11.32;;
77324;SDS011;66387;53.440;10.390;2023-12-04T04:11:45;18.90;;;10.70;;
77324;SDS011;66387;53.440;10.390;2023-12-04T04:14:10;20.63;;;9.50;;
77324;SDS011;66387;53.440;10.390;2023-12-04T04:16:36;17.90;;;9.10;;
77324;SDS011;66387;53.440;10.390;2023-12-04T04:19:01;23.00;;;11.70;;
77324;SDS011;66387;53.440;10.390;2023-12-04T04:21:26;18.57;;;10.07;;
77324;SDS011;66387;53.440;10.390;2023-12-04T04:23:51;17.93;;;9.37;;
77324;SDS011;66387;53.440;10.390;2023-12-04T04:26:18;18.23;;;9.50;;
77324;SDS011;66387;53.440;10.390;2023-12-04T04:28:43;19.33;;;11.60;;
77324;SDS011;66387;53.440;10.390;2023-12-04T04:31:09;21.27;;;11.37;;
77324;SDS011;66387;53.440;10.390;2023-12-04T04:33:34;24.53;;;11.43;;
77324;SDS011;66387;53.440;10.390;2023-12-04T04:35:59;22.80;;;9.57;;
77324;SDS011;66387;53.440;10.390;2023-12-04T04:38:24;19.80;;;9.67;;
77324;SDS011;66387;53.440;10.390;2023-12-04T04:40:50;16.97;;;10.87;;
77324;SDS011;66387;53.440;10.390;2023-12-04T04:43:16;20.52;;;10.05;;
77324;SDS011;66387;53.440;10.390;2023-12-04T04:45:41;20.10;;;10.17;;
77324;SDS011;66387;53.440;10.390;2023-12-04T04:48:06;20.03;;;9.30;;
77324;SDS011;66387;53.440;10.390;2023-12-04T04:50:31;18.03;;;8.83;;
77324;SDS011;66387;53.440;10.390;2023-12-04T04:52:57;25.13;;;9.83;;
77324;SDS011;66387;53.440;10.390;2023-12-04T04:55:22;21.07;;;12.20;;
77324;SDS011;66387;53.440;10.390;2023-12-04T04:57:47;20.03;;;10.53;;
77324;SDS011;66387;53.440;10.390;2023-12-04T05:00:12;21.50;;;12.43;;
77324;SDS011;66387;53.440;10.390;2023-12-04T05:02:38;21.55;;;9.88;;
77324;SDS011;66387;53.440;10.390;2023-12-04T05:05:03;19.67;;;10.57;;
77324;SDS011;66387;53.440;10.390;2023-12-04T05:07:29;21.92;;;11.35;;
77324;SDS011;66387;53.440;10.390;2023-12-04T05:09:55;22.92;;;11.15;;
77324;SDS011;66387;53.440;10.390;2023-12-04T05:12:20;24.27;;;11.57;;
77324;SDS011;66387;53.440;10.390;2023-12-04T05:14:45;27.00;;;12.60;;
77324;SDS011;66387;53.440;10.390;2023-12-04T05:17:10;18.90;;;10.37;;
77324;SDS011;66387;53.440;10.390;2023-12-04T05:19:36;24.80;;;10.05;;
77324;SDS011;66387;53.440;10.390;2023-12-04T05:22:01;25.17;;;12.40;;
77324;SDS011;66387;53.440;10.390;2023-12-04T05:24:26;23.97;;;11.63;;
77324;SDS011;66387;53.440;10.390;2023-12-04T05:26:51;19.77;;;10.83;;
77324;SDS011;66387;53.440;10.390;2023-12-04T05:29:17;22.63;;;11.70;;
77324;SDS011;66387;53.440;10.390;2023-12-04T05:31:42;22.50;;;10.57;;
77324;SDS011;66387;53.440;10.390;2023-12-04T05:34:07;28.23;;;13.03;;
77324;SDS011;66387;53.440;10.390;2023-12-04T05:36:32;20.73;;;12.75;;
77324;SDS011;66387;53.440;10.390;2023-12-04T05:38:58;22.50;;;10.83;;
77324;SDS011;66387;53.440;10.390;2023-12-04T05:41:23;18.07;;;11.33;;
77324;SDS011;66387;53.440;10.390;2023-12-04T05:43:48;21.53;;;10.90;;
77324;SDS011;66387;53.440;10.390;2023-12-04T05:46:13;22.73;;;12.40;;
77324;SDS011;66387;53.440;10.390;2023-12-04T05:48:39;20.77;;;10.50;;
77324;SDS011;66387;53.440;10.390;2023-12-04T05:51:04;23.50;;;11.80;;
77324;SDS011;66387;53.440;10.390;2023-12-04T05:53:29;22.20;;;11.43;;
77324;SDS011;66387;53.440;10.390;2023-12-04T05:55:55;25.38;;;11.77;;
77324;SDS011;66387;53.440;10.390;2023-12-04T05:58:20;23.53;;;11.80;;
77324;SDS011;66387;53.440;10.390;2023-12-04T06:00:45;23.30;;;11.40;;
77324;SDS011;66387;53.440;10.390;2023-12-04T06:03:10;23.63;;;12.43;;
77324;SDS011;66387;53.440;10.390;2023-12-04T06:05:36;20.10;;;11.23;;
77324;SDS011;66387;53.440;10.390;2023-12-04T06:08:01;18.80;;;10.18;;
77324;SDS011;66387;53.440;10.390;2023-12-04T06:10:26;19.83;;;10.90;;
77324;SDS011;66387;53.440;10.390;2023-12-04T06:12:52;22.20;;;12.30;;
77324;SDS011;66387;53.440;10.390;2023-12-04T06:15:17;21.87;;;11.00;;
77324;SDS011;66387;53.440;10.390;2023-12-04T06:17:42;23.15;;;10.55;;
77324;SDS011;66387;53.440;10.390;2023-12-04T06:20:08;22.73;;;10.90;;
77324;SDS011;66387;53.440;10.390;2023-12-04T06:22:34;18.85;;;10.68;;
77324;SDS011;66387;53.440;10.390;2023-12-04T06:24:59;19.92;;;12.25;;
77324;SDS011;66387;53.440;10.390;2023-12-04T06:27:25;23.92;;;11.90;;
77324;SDS011;66387;53.440;10.390;2023-12-04T06:29:50;20.58;;;12.57;;
77324;SDS011;66387;53.440;10.390;2023-12-04T06:32:16;21.88;;;11.68;;
77324;SDS011;66387;53.440;10.390;2023-12-04T06:34:42;21.63;;;11.80;;
77324;SDS011;66387;53.440;10.390;2023-12-04T06:37:11;20.15;;;10.93;;
77324;SDS011;66387;53.440;10.390;2023-12-04T06:39:37;20.70;;;11.82;;
77324;SDS011;66387;53.440;10.390;2023-12-04T06:42:05;21.00;;;11.98;;
77324;SDS011;66387;53.440;10.390;2023-12-04T06:44:31;20.83;;;10.93;;
77324;SDS011;66387;53.440;10.390;2023-12-04T06:46:56;20.40;;;10.88;;
77324;SDS011;66387;53.440;10.390;2023-12-04T06:49:24;20.13;;;12.80;;
77324;SDS011;66387;53.440;10.390;2023-12-04T06:51:54;23.70;;;10.75;;
77324;SDS011;66387;53.440;10.390;2023-12-04T06:54:19;19.13;;;10.80;;
77324;SDS011;66387;53.440;10.390;2023-12-04T06:56:45;23.33;;;11.33;;
77324;SDS011;66387;53.440;10.390;2023-12-04T06:59:10;25.17;;;12.33;;
77324;SDS011;66387;53.440;10.390;2023-12-04T07:01:35;19.97;;;12.70;;
77324;SDS011;66387;53.440;10.390;2023-12-04T07:04:00;16.17;;;9.77;;
77324;SDS011;66387;53.440;10.390;2023-12-04T07:06:26;22.67;;;11.87;;
77324;SDS011;66387;53.440;10.390;2023-12-04T07:08:51;20.60;;;11.03;;
77324;SDS011;66387;53.440;10.390;2023-12-04T07:11:16;23.07;;;11.83;;
77324;SDS011;66387;53.440;10.390;2023-12-04T07:13:42;18.87;;;9.93;;
77324;SDS011;66387;53.440;10.390;2023-12-04T07:16:07;20.63;;;10.55;;
77324;SDS011;66387;53.440;10.390;2023-12-04T07:18:33;19.92;;;10.82;;
77324;SDS011;66387;53.440;10.390;2023-12-04T07:20:58;26.50;;;13.13;;
77324;SDS011;66387;53.440;10.390;2023-12-04T07:23:23;21.77;;;11.43;;
77324;SDS011;66387;53.440;10.390;2023-12-04T07:25:48;24.97;;;11.43;;
77324;SDS011;66387;53.440;10.390;2023-12-04T07:28:14;22.27;;;10.77;;
77324;SDS011;66387;53.440;10.390;2023-12-04T07:30:39;20.53;;;10.40;;
77324;SDS011;66387;53.440;10.390;2023-12-04T07:33:04;24.73;;;12.15;;
77324;SDS011;66387;53.440;10.390;2023-12-04T07:35:29;21.63;;;10.60;;
77324;SDS011;66387;53.440;10.390;2023-12-04T07:37:55;23.70;;;10.47;;
77324;SDS011;66387;53.440;10.390;2023-12-04T07:40:20;27.87;;;12.60;;
77324;SDS011;66387;53.440;10.390;2023-12-04T07:42:47;20.13;;;12.43;;
77324;SDS011;66387;53.440;10.390;2023-12-04T07:45:13;24.27;;;11.73;;
77324;SDS011;66387;53.440;10.390;2023-12-04T07:47:39;27.83;;;13.38;;
77324;SDS011;66387;53.440;10.390;2023-12-04T07:50:04;26.33;;;12.33;;
77324;SDS011;66387;53.440;10.390;2023-12-04T07:52:30;19.27;;;10.60;;
77324;SDS011;66387;53.440;10.390;2023-12-04T07:54:55;21.80;;;12.10;;
77324;SDS011;66387;53.440;10.390;2023-12-04T07:57:21;20.73;;;12.57;;
77324;SDS011;66387;53.440;10.390;2023-12-04T07:59:47;23.67;;;13.20;;
77324;SDS011;66387;53.440;10.390;2023-12-04T08:02:12;27.00;;;14.98;;
77324;SDS011;66387;53.440;10.390;2023-12-04T08:04:38;25.87;;;12.90;;
77324;SDS011;66387;53.440;10.390;2023-12-04T08:07:03;23.43;;;11.50;;
77324;SDS011;66387;53.440;10.390;2023-12-04T08:09:28;22.90;;;11.63;;
77324;SDS011;66387;53.440;10.390;2023-12-04T08:11:54;25.07;;;12.70;;
77324;SDS011;66387;53.440;10.390;2023-12-04T08:14:19;23.13;;;12.57;;
77324;SDS011;66387;53.440;10.390;2023-12-04T08:16:44;22.00;;;12.17;;
77324;SDS011;66387;53.440;10.390;2023-12-04T08:19:09;21.27;;;11.57;;
77324;SDS011;66387;53.440;10.390;2023-12-04T08:21:35;25.07;;;11.97;;
77324;SDS011;66387;53.440;10.390;2023-12-04T08:24:00;23.00;;;12.00;;
77324;SDS011;66387;53.440;10.390;2023-12-04T08:26:25;18.93;;;11.37;;
77324;SDS011;66387;53.440;10.390;2023-12-04T08:28:51;18.58;;;10.57;;
77324;SDS011;66387;53.440;10.390;2023-12-04T08:31:17;25.20;;;11.93;;
77324;SDS011;66387;53.440;10.390;2023-12-04T08:33:42;25.30;;;11.82;;
77324;SDS011;66387;53.440;10.390;2023-12-04T08:36:08;28.08;;;13.55;;
77324;SDS011;66387;53.440;10.390;2023-12-04T08:38:34;22.98;;;14.23;;
77324;SDS011;66387;53.440;10.390;2023-12-04T08:41:00;23.13;;;11.95;;
77324;SDS011;66387;53.440;10.390;2023-12-04T08:43:25;26.02;;;13.05;;
77324;SDS011;66387;53.440;10.390;2023-12-04T08:45:50;27.57;;;12.37;;
77324;SDS011;66387;53.440;10.390;2023-12-04T08:48:16;22.83;;;12.20;;
77324;SDS011;66387;53.440;10.390;2023-12-04T08:50:41;20.90;;;11.63;;
77324;SDS011;66387;53.440;10.390;2023-12-04T08:53:06;23.53;;;12.50;;
77324;SDS011;66387;53.440;10.390;2023-12-04T08:55:31;20.40;;;11.13;;
77324;SDS011;66387;53.440;10.390;2023-12-04T08:57:57;22.40;;;10.90;;
77324;SDS011;66387;53.440;10.390;2023-12-04T09:00:22;21.87;;;11.57;;
77324;SDS011;66387;53.440;10.390;2023-12-04T09:02:47;23.27;;;11.50;;
77324;SDS011;66387;53.440;10.390;2023-12-04T09:05:13;22.23;;;13.13;;
77324;SDS011;66387;53.440;10.390;2023-12-04T09:07:39;27.58;;;12.50;;
77324;SDS011;66387;53.440;10.390;2023-12-04T09:10:04;24.67;;;13.43;;
77324;SDS011;66387;53.440;10.390;2023-12-04T09:12:30;22.95;;;11.38;;
77324;SDS011;66387;53.440;10.390;2023-12-04T09:14:55;28.67;;;13.57;;
77324;SDS011;66387;53.440;10.390;2023-12-04T09:17:21;20.40;;;12.20;;
77324;SDS011;66387;53.440;10.390;2023-12-04T09:19:46;22.45;;;12.40;;
77324;SDS011;66387;53.440;10.390;2023-12-04T09:22:11;20.63;;;10.50;;
77324;SDS011;66387;53.440;10.390;2023-12-04T09:24:37;26.83;;;11.63;;
77324;SDS011;66387;53.440;10.390;2023-12-04T09:27:02;23.43;;;13.10;;
77324;SDS011;66387;53.440;10.390;2023-12-04T09:29:27;21.33;;;11.95;;
77324;SDS011;66387;53.440;10.390;2023-12-04T09:31:53;28.27;;;13.30;;
77324;SDS011;66387;53.440;10.390;2023-12-04T09:34:18;24.63;;;13.10;;
77324;SDS011;66387;53.440;10.390;2023-12-04T09:36:45;22.80;;;12.65;;
77324;SDS011;66387;53.440;10.390;2023-12-04T09:39:11;21.70;;;12.57;;
77324;SDS011;66387;53.440;10.390;2023-12-04T09:41:37;21.53;;;11.70;;
77324;SDS011;66387;53.440;10.390;2023-12-04T09:44:04;19.45;;;10.82;;
77324;SDS011;66387;53.440;10.390;2023-12-04T09:46:31;21.13;;;11.13;;
77324;SDS011;66387;53.440;10.390;2023-12-04T09:48:58;26.13;;;12.05;;
77324;SDS011;66387;53.440;10.390;2023-12-04T09:51:24;22.85;;;12.48;;
77324;SDS011;66387;53.440;10.390;2023-12-04T09:53:51;20.35;;;11.40;;
77324;SDS011;66387;53.440;10.390;2023-12-04T09:56:17;20.40;;;11.07;;
77324;SDS011;66387;53.440;10.390;2023-12-04T09:58:43;21.85;;;11.98;;
77324;SDS011;66387;53.440;10.390;2023-12-04T10:01:10;19.40;;;10.73;;
77324;SDS011;66387;53.440;10.390;2023-12-04T10:03:36;20.55;;;11.25;;
77324;SDS011;66387;53.440;10.390;2023-12-04T10:06:02;25.23;;;13.75;;
77324;SDS011;66387;53.440;10.390;2023-12-04T10:08:29;22.92;;;11.68;;
77324;SDS011;66387;53.440;10.390;2023-12-04T10:10:54;19.60;;;12.13;;
77324;SDS011;66387;53.440;10.390;2023-12-04T10:13:20;21.88;;;10.85;;
77324;SDS011;66387;53.440;10.390;2023-12-04T10:15:48;15.87;;;10.20;;
77324;SDS011;66387;53.440;10.390;2023-12-04T10:18:24;21.88;;;12.00;;
77324;SDS011;66387;53.440;10.390;2023-12-04T10:20:55;19.98;;;11.45;;
77324;SDS011;66387;53.440;10.390;2023-12-04T10:23:21;22.52;;;12.82;;
77324;SDS011;66387;53.440;10.390;2023-12-04T10:25:48;19.13;;;10.25;;
77324;SDS011;66387;53.440;10.390;2023-12-04T10:28:17;22.63;;;11.25;;
77324;SDS011;66387;53.440;10.390;2023-12-04T10:30:43;20.50;;;11.52;;
77324;SDS011;66387;53.440;10.390;2023-12-04T10:33:09;17.45;;;10.85;;
77324;SDS011;66387;53.440;10.390;2023-12-04T10:35:35;18.38;;;11.25;;
77324;SDS011;66387;53.440;10.390;2023-12-04T10:38:01;24.73;;;13.48;;
77324;SDS011;66387;53.440;10.390;2023-12-04T10:40:30;17.20;;;10.95;;
77324;SDS011;66387;53.440;10.390;2023-12-04T10:43:16;23.00;;;11.65;;
77324;SDS011;66387;53.440;10.390;2023-12-04T10:45:46;23.70;;;11.52;;
77324;SDS011;66387;53.440;10.390;2023-12-04T10:48:14;20.98;;;11.18;;
77324;SDS011;66387;53.440;10.390;2023-12-04T10:50:41;19.98;;;11.27;;
77324;SDS011;66387;53.440;10.390;2023-12-04T10:53:09;21.08;;;11.23;;
77324;SDS011;66387;53.440;10.390;2023-12-04T10:55:35;22.30;;;11.07;;
77324;SDS011;66387;53.440;10.390;2023-12-04T10:58:02;18.52;;;11.55;;
77324;SDS011;66387;53.440;10.390;2023-12-04T11:02:57;18.30;;;10.35;;
77324;SDS011;66387;53.440;10.390;2023-12-04T11:05:29;15.93;;;10.38;;
77324;SDS011;66387;53.440;10.390;2023-12-04T11:08:00;19.83;;;11.00;;
77324;SDS011;66387;53.440;10.390;2023-12-04T11:10:31;20.33;;;9.65;;
77324;SDS011;66387;53.440;10.390;2023-12-04T11:13:00;20.17;;;11.82;;
77324;SDS011;66387;53.440;10.390;2023-12-04T11:15:29;20.27;;;10.52;;
77324;SDS011;66387;53.440;10.390;2023-12-04T11:18:00;18.17;;;10.00;;
77324;SDS011;66387;53.440;10.390;2023-12-04T11:20:27;20.65;;;11.27;;
77324;SDS011;66387;53.440;10.390;2023-12-04T11:22:54;18.50;;;10.50;;
77324;SDS011;66387;53.440;10.390;2023-12-04T11:25:20;16.25;;;10.60;;
77324;SDS011;66387;53.440;10.390;2023-12-04T11:27:48;22.73;;;11.10;;
77324;SDS011;66387;53.440;10.390;2023-12-04T11:30:14;18.23;;;11.38;;
77324;SDS011;66387;53.440;10.390;2023-12-04T11:32:44;18.52;;;10.98;;
77324;SDS011;66387;53.440;10.390;2023-12-04T11:35:17;23.60;;;12.35;;
77324;SDS011;66387;53.440;10.390;2023-12-04T11:37:46;19.10;;;11.13;;
77324;SDS011;66387;53.440;10.390;2023-12-04T11:40:12;19.13;;;9.88;;
77324;SDS011;66387;53.440;10.390;2023-12-04T11:42:40;16.17;;;10.50;;
77324;SDS011;66387;53.440;10.390;2023-12-04T11:45:06;19.60;;;11.10;;
77324;SDS011;66387;53.440;10.390;2023-12-04T11:47:48;23.77;;;12.10;;
77324;SDS011;66387;53.440;10.390;2023-12-04T11:50:19;17.73;;;10.70;;
77324;SDS011;66387;53.440;10.390;2023-12-04T11:52:45;26.50;;;11.57;;
77324;SDS011;66387;53.440;10.390;2023-12-04T11:55:11;19.65;;;10.70;;
77324;SDS011;66387;53.440;10.390;2023-12-04T11:57:37;23.83;;;11.02;;
77324;SDS011;66387;53.440;10.390;2023-12-04T12:03:03;17.60;;;9.75;;
77324;SDS011;66387;53.440;10.390;2023-12-04T12:05:31;19.02;;;10.65;;
77324;SDS011;66387;53.440;10.390;2023-12-04T12:08:04;20.15;;;10.75;;
77324;SDS011;66387;53.440;10.390;2023-12-04T12:10:30;16.90;;;11.25;;
77324;SDS011;66387;53.440;10.390;2023-12-04T12:12:57;20.48;;;11.02;;
77324;SDS011;66387;53.440;10.390;2023-12-04T12:15:22;18.80;;;10.80;;
77324;SDS011;66387;53.440;10.390;2023-12-04T12:17:48;16.52;;;10.82;;
77324;SDS011;66387;53.440;10.390;2023-12-04T12:20:16;21.63;;;11.43;;
77324;SDS011;66387;53.440;10.390;2023-12-04T12:22:41;20.52;;;10.90;;
77324;SDS011;66387;53.440;10.390;2023-12-04T12:25:08;19.23;;;9.93;;
77324;SDS011;66387;53.440;10.390;2023-12-04T12:27:35;15.32;;;9.38;;
77324;SDS011;66387;53.440;10.390;2023-12-04T12:30:01;21.20;;;11.18;;
77324;SDS011;66387;53.440;10.390;2023-12-04T12:32:28;19.45;;;10.38;;
77324;SDS011;66387;53.440;10.390;2023-12-04T12:34:53;17.00;;;9.23;;
77324;SDS011;66387;53.440;10.390;2023-12-04T12:37:20;21.30;;;11.52;;
77324;SDS011;66387;53.440;10.390;2023-12-04T12:39:45;17.05;;;10.10;;
77324;SDS011;66387;53.440;10.390;2023-12-04T12:42:11;17.52;;;11.02;;
77324;SDS011;66387;53.440;10.390;2023-12-04T12:44:39;19.00;;;9.17;;
77324;SDS011;66387;53.440;10.390;2023-12-04T12:47:05;19.85;;;11.23;;
77324;SDS011;66387;53.440;10.390;2023-12-04T12:49:32;17.30;;;8.88;;
77324;SDS011;66387;53.440;10.390;2023-12-04T12:51:59;19.20;;;10.45;;
77324;SDS011;66387;53.440;10.390;2023-12-04T12:54:24;15.90;;;9.60;;
77324;SDS011;66387;53.440;10.390;2023-12-04T12:56:50;15.97;;;9.67;;
77324;SDS011;66387;53.440;10.390;2023-12-04T12:59:15;16.60;;;9.33;;
77324;SDS011;66387;53.440;10.390;2023-12-04T13:01:40;15.95;;;9.18;;
77324;SDS011;66387;53.440;10.390;2023-12-04T13:04:06;18.13;;;9.63;;
77324;SDS011;66387;53.440;10.390;2023-12-04T13:06:32;14.07;;;9.07;;
77324;SDS011;66387;53.440;10.390;2023-12-04T13:08:57;18.43;;;9.13;;
77324;SDS011;66387;53.440;10.390;2023-12-04T13:11:22;18.93;;;9.77;;
77324;SDS011;66387;53.440;10.390;2023-12-04T13:13:48;18.60;;;10.38;;
77324;SDS011;66387;53.440;10.390;2023-12-04T13:16:13;21.08;;;9.80;;
77324;SDS011;66387;53.440;10.390;2023-12-04T13:18:38;17.58;;;9.45;;
77324;SDS011;66387;53.440;10.390;2023-12-04T13:21:04;16.43;;;9.33;;
77324;SDS011;66387;53.440;10.390;2023-12-04T13:23:29;16.73;;;10.38;;
77324;SDS011;66387;53.440;10.390;2023-12-04T13:25:55;20.37;;;11.60;;
77324;SDS011;66387;53.440;10.390;2023-12-04T13:28:20;14.97;;;7.97;;
77324;SDS011;66387;53.440;10.390;2023-12-04T13:30:46;18.58;;;9.43;;
77324;SDS011;66387;53.440;10.390;2023-12-04T13:33:11;14.88;;;8.65;;
77324;SDS011;66387;53.440;10.390;2023-12-04T13:35:36;19.57;;;11.37;;
77324;SDS011;66387;53.440;10.390;2023-12-04T13:38:02;14.93;;;8.67;;
77324;SDS011;66387;53.440;10.390;2023-12-04T13:40:27;15.52;;;8.77;;
77324;SDS011;66387;53.440;10.390;2023-12-04T13:42:57;15.63;;;8.88;;
77324;SDS011;66387;53.440;10.390;2023-12-04T13:45:41;17.25;;;10.75;;
77324;SDS011;66387;53.440;10.390;2023-12-04T13:48:06;14.77;;;8.30;;
77324;SDS011;66387;53.440;10.390;2023-12-04T13:50:31;17.83;;;8.87;;
77324;SDS011;66387;53.440;10.390;2023-12-04T13:52:56;16.93;;;8.63;;
77324;SDS011;66387;53.440;10.390;2023-12-04T13:55:23;15.23;;;10.38;;
77324;SDS011;66387;53.440;10.390;2023-12-04T13:58:27;14.48;;;10.07;;
77324;SDS011;66387;53.440;10.390;2023-12-04T14:01:04;18.02;;;9.85;;
77324;SDS011;66387;53.440;10.390;2023-12-04T14:03:38;16.08;;;9.02;;
77324;SDS011;66387;53.440;10.390;2023-12-04T14:06:07;14.75;;;9.07;;
77324;SDS011;66387;53.440;10.390;2023-12-04T14:08:33;15.88;;;10.25;;
77324;SDS011;66387;53.440;10.390;2023-12-04T14:10:58;15.50;;;8.40;;